createdAt,value
2018-04-27T00:04:37.537Z,65.44
2018-04-27T00:09:28.562Z,65.18
2018-04-27T00:14:20.350Z,64.74
2018-04-27T00:19:11.366Z,64.96
2018-04-27T00:24:02.392Z,64.84
2018-04-27T00:28:53.421Z,64.60
2018-04-27T00:33:44.453Z,64.84
2018-04-27T00:38:35.523Z,65.03
2018-04-27T00:43:27.324Z,64.97
2018-04-27T00:48:18.326Z,65.07
2018-04-27T00:53:13.383Z,65.15
2018-04-27T00:58:04.451Z,65.31
2018-04-27T01:02:56.249Z,65.73
2018-04-27T01:07:47.317Z,65.87
2018-04-27T01:12:39.072Z,66.02
2018-04-27T01:17:30.116Z,66.27
2018-04-27T01:22:21.245Z,66.34
2018-04-27T01:27:12.349Z,66.16
2018-04-27T01:32:03.336Z,66.05
2018-04-27T01:36:55.100Z,66.17
2018-04-27T01:41:46.894Z,66.16
2018-04-27T01:46:37.925Z,66.22
2018-04-27T01:51:28.957Z,66.32
2018-04-27T01:56:20.009Z,66.44
2018-04-27T02:01:11.027Z,66.78
2018-04-27T02:06:02.814Z,67.52
2018-04-27T02:10:53.820Z,68.32
2018-04-27T02:15:44.934Z,68.76
2018-04-27T02:20:36.021Z,69.67
2018-04-27T02:25:27.774Z,69.90
2018-04-27T02:30:19.539Z,70.52
2018-04-27T02:35:10.625Z,70.91
2018-04-27T02:40:02.518Z,70.70
2018-04-27T02:44:53.539Z,71.18
2018-04-27T02:49:44.691Z,70.98
2018-04-27T02:54:35.767Z,70.59
2018-04-27T02:59:26.774Z,70.48
2018-04-27T03:04:18.555Z,70.67
2018-04-27T03:09:09.593Z,70.75
2018-04-27T03:14:00.612Z,70.67
2018-04-27T03:18:51.629Z,70.60
2018-04-27T03:23:42.678Z,70.34
2018-04-27T03:28:33.710Z,70.28
2018-04-27T03:33:24.706Z,70.30
2018-04-27T03:38:15.714Z,70.22
2018-04-27T03:43:06.940Z,69.93
2018-04-27T03:47:57.960Z,70.09
2018-04-27T03:52:48.987Z,70.21
2018-04-27T03:57:40.018Z,70.12
2018-04-27T04:02:49.770Z,70.03
2018-04-27T04:07:40.792Z,69.79
2018-04-27T04:12:31.833Z,69.79
2018-04-27T04:17:22.843Z,69.88
2018-04-27T04:22:13.910Z,69.67
2018-04-27T04:27:05.085Z,69.65
2018-04-27T04:31:56.097Z,69.14
2018-04-27T04:36:47.161Z,69.72
2018-04-27T04:41:38.183Z,70.28
2018-04-27T04:46:29.303Z,70.42
2018-04-27T04:51:20.417Z,70.21
2018-04-27T04:56:11.422Z,70.31
2018-04-27T05:01:02.440Z,70.11
2018-04-27T05:05:53.474Z,69.60
2018-04-27T05:10:44.484Z,69.04
2018-04-27T05:15:35.913Z,68.90
2018-04-27T05:20:26.792Z,68.43
2018-04-27T05:25:17.853Z,68.37
2018-04-27T05:30:08.945Z,67.48
2018-04-27T05:35:00.189Z,67.08
2018-04-27T05:39:51.950Z,67.28
2018-04-27T05:44:43.669Z,66.94
2018-04-27T05:49:35.519Z,66.32
2018-04-27T05:54:26.548Z,66.26
2018-04-27T05:59:17.612Z,65.64
2018-04-27T06:04:12.505Z,65.38
2018-04-27T06:09:04.392Z,64.90
2018-04-27T06:13:55.457Z,64.87
2018-04-27T06:18:46.456Z,64.91
2018-04-27T06:23:38.240Z,63.99
2018-04-27T06:28:32.068Z,63.91
2018-04-27T06:33:23.188Z,63.06
2018-04-27T06:38:14.294Z,61.85
2018-04-27T06:43:05.400Z,61.48
2018-04-27T06:47:56.461Z,61.52
2018-04-27T06:52:47.602Z,60.02
2018-04-27T06:57:38.707Z,57.53
2018-04-27T07:02:29.793Z,53.51
2018-04-27T07:07:20.938Z,51.68
2018-04-27T07:12:11.953Z,48.33
2018-04-27T07:17:03.158Z,47.54
2018-04-27T07:21:54.865Z,46.86
2018-04-27T07:26:45.864Z,46.61
2018-04-27T07:31:37.013Z,44.83
2018-04-27T07:36:28.061Z,44.83
2018-04-27T07:41:19.077Z,43.64
2018-04-27T07:46:10.845Z,42.52
2018-04-27T07:51:01.868Z,42.66
2018-04-27T07:55:52.921Z,38.93
2018-04-27T08:00:43.949Z,39.39
2018-04-27T08:05:35.019Z,40.49
2018-04-27T08:10:26.088Z,40.28
2018-04-27T08:15:17.109Z,41.14
2018-04-27T08:20:08.110Z,39.45
2018-04-27T08:24:59.191Z,39.01
2018-04-27T08:29:50.992Z,39.87
2018-04-27T08:34:42.157Z,39.35
2018-04-27T08:39:33.157Z,39.81
2018-04-27T08:44:24.212Z,39.03
2018-04-27T08:49:15.476Z,39.15
2018-04-27T08:54:06.483Z,39.37
2018-04-27T08:58:57.475Z,38.42
2018-04-27T09:03:48.497Z,38.29
2018-04-27T09:08:39.555Z,38.63
2018-04-27T09:13:30.628Z,39.49
2018-04-27T09:18:21.633Z,40.06
2018-04-27T09:23:12.639Z,38.55
2018-04-27T09:28:03.664Z,37.25
2018-04-27T09:32:54.768Z,37.99
2018-04-27T09:37:46.543Z,36.35
2018-04-27T09:42:37.576Z,35.97
2018-04-27T09:47:28.576Z,34.48
2018-04-27T09:52:19.609Z,35.49
2018-04-27T09:57:10.730Z,34.42
2018-04-27T10:02:01.811Z,33.63
2018-04-27T10:06:53.589Z,33.97
2018-04-27T10:11:44.846Z,34.05
2018-04-27T10:16:35.876Z,33.46
2018-04-27T10:21:26.874Z,31.09
2018-04-27T10:26:19.918Z,31.81
2018-04-27T10:31:10.953Z,32.34
2018-04-27T10:36:01.963Z,30.43
2018-04-27T10:40:52.978Z,29.71
2018-04-27T10:45:43.986Z,29.78
2018-04-27T10:50:35.852Z,29.29
2018-04-27T10:55:26.841Z,28.26
2018-04-27T11:00:18.595Z,30.17
2018-04-27T11:05:09.676Z,29.70
2018-04-27T11:10:00.994Z,29.83
2018-04-27T11:14:52.009Z,29.88
2018-04-27T11:19:43.234Z,30.08
2018-04-27T11:24:34.249Z,28.81
2018-04-27T11:29:25.355Z,27.02
2018-04-27T11:34:17.091Z,28.48
2018-04-27T11:39:08.882Z,28.85
2018-04-27T11:43:59.961Z,29.93
2018-04-27T11:48:51.695Z,30.73
2018-04-27T11:53:43.497Z,31.18
2018-04-27T11:58:34.551Z,30.88
2018-04-27T12:03:26.311Z,30.14
2018-04-27T12:08:17.311Z,29.97
2018-04-27T12:13:09.076Z,28.92
2018-04-27T12:18:00.229Z,29.17
2018-04-27T12:22:51.437Z,30.29
2018-04-27T12:27:42.436Z,30.37
2018-04-27T12:32:34.184Z,30.58
2018-04-27T12:37:25.303Z,30.34
2018-04-27T12:42:17.131Z,29.98
2018-04-27T12:47:08.929Z,29.78
2018-04-27T12:52:00.020Z,29.85
2018-04-27T12:56:51.496Z,29.54
2018-04-27T13:01:42.501Z,28.92
2018-04-27T13:06:33.513Z,29.34
2018-04-27T13:11:24.551Z,29.64
2018-04-27T13:16:15.755Z,29.18
2018-04-27T13:21:06.782Z,27.16
2018-04-27T13:25:57.805Z,27.60
2018-04-27T13:30:48.848Z,28.60
2018-04-27T13:35:39.939Z,28.97
2018-04-27T13:40:30.993Z,29.21
2018-04-27T13:45:22.001Z,29.44
2018-04-27T13:50:13.004Z,29.50
2018-04-27T13:55:04.761Z,29.45
2018-04-27T13:59:55.820Z,29.35
2018-04-27T14:04:46.890Z,29.42
2018-04-27T14:09:38.725Z,29.95
2018-04-27T14:14:32.295Z,29.46
2018-04-27T14:19:24.080Z,30.06
2018-04-27T14:24:15.133Z,30.00
2018-04-27T14:29:06.140Z,30.17
2018-04-27T14:33:57.201Z,30.60
2018-04-27T14:38:48.345Z,30.49
2018-04-27T14:43:40.335Z,30.57
2018-04-27T14:48:31.385Z,30.64
2018-04-27T14:53:22.384Z,31.08
2018-04-27T14:58:13.401Z,31.25
2018-04-27T15:03:04.441Z,31.36
2018-04-27T15:07:55.653Z,30.78
2018-04-27T15:12:46.658Z,30.25
2018-04-27T15:17:37.665Z,30.91
2018-04-27T15:22:29.434Z,31.26
2018-04-27T15:27:20.513Z,31.39
2018-04-27T15:32:12.320Z,31.68
2018-04-27T15:37:03.315Z,31.74
2018-04-27T15:41:54.381Z,31.81
2018-04-27T15:46:45.583Z,32.02
2018-04-27T15:51:36.596Z,31.74
2018-04-27T15:56:27.591Z,31.88
2018-04-27T16:01:18.629Z,31.60
2018-04-27T16:06:09.665Z,31.88
2018-04-27T16:11:00.905Z,31.90
2018-04-27T16:15:51.916Z,31.66
2018-04-27T16:20:42.923Z,31.84
2018-04-27T16:25:33.969Z,32.02
2018-04-27T16:30:25.051Z,31.77
2018-04-27T16:35:16.090Z,32.11
2018-04-27T16:40:08.761Z,32.00
2018-04-27T16:45:00.130Z,31.80
2018-04-27T16:49:51.215Z,32.08
2018-04-27T16:54:42.215Z,31.96
2018-04-27T16:59:34.024Z,32.08
2018-04-27T17:04:25.094Z,32.26
2018-04-27T17:09:16.226Z,32.29
2018-04-27T17:14:07.269Z,32.35
2018-04-27T17:18:58.269Z,32.66
2018-04-27T17:23:49.275Z,32.46
2018-04-27T17:28:40.377Z,32.61
2018-04-27T17:33:31.408Z,32.77
2018-04-27T17:38:23.223Z,32.85
2018-04-27T17:43:14.241Z,32.99
2018-04-27T17:48:05.313Z,32.95
2018-04-27T17:52:56.324Z,33.25
2018-04-27T17:57:48.286Z,33.25
2018-04-27T18:02:39.319Z,33.63
2018-04-27T18:07:30.414Z,34.01
2018-04-27T18:12:22.208Z,34.39
2018-04-27T18:17:13.225Z,34.67
2018-04-27T18:22:04.258Z,34.85
2018-04-27T18:26:55.453Z,35.05
2018-04-27T18:31:46.496Z,35.21
2018-04-27T18:36:37.556Z,35.48
2018-04-27T18:41:35.691Z,36.46
2018-04-27T18:46:26.731Z,36.67
2018-04-27T18:51:18.776Z,37.08
2018-04-27T18:56:09.911Z,37.17
2018-04-27T19:01:01.019Z,37.46
2018-04-27T19:05:52.096Z,37.88
2018-04-27T19:10:44.001Z,38.12
2018-04-27T19:15:35.075Z,38.52
2018-04-27T19:20:26.860Z,39.22
2018-04-27T19:25:17.869Z,39.56
2018-04-27T19:30:08.997Z,39.97
2018-04-27T19:35:00.027Z,40.18
2018-04-27T19:39:51.038Z,40.37
2018-04-27T19:44:42.143Z,40.71
2018-04-27T19:49:33.199Z,41.12
2018-04-27T19:54:24.308Z,41.44
2018-04-27T19:59:15.304Z,41.77
2018-04-27T20:04:07.072Z,42.13
2018-04-27T20:08:58.081Z,42.68
2018-04-27T20:13:49.200Z,43.10
2018-04-27T20:18:40.582Z,43.35
2018-04-27T20:23:34.740Z,43.71
2018-04-27T20:28:27.630Z,43.87
2018-04-27T20:33:19.635Z,44.12
2018-04-27T20:38:18.725Z,44.31
2018-04-27T20:43:10.553Z,44.57
2018-04-27T20:48:01.580Z,44.75
2018-04-27T20:52:52.705Z,44.96
2018-04-27T20:57:44.485Z,45.16
2018-04-27T21:02:35.537Z,45.49
2018-04-27T21:07:26.553Z,45.81
2018-04-27T21:12:17.584Z,46.00
2018-04-27T21:17:08.572Z,46.36
2018-04-27T21:21:59.612Z,46.64
2018-04-27T21:26:50.661Z,46.92
2018-04-27T21:31:41.655Z,47.13
2018-04-27T21:36:32.752Z,47.19
2018-04-27T21:47:01.881Z,47.70
2018-04-27T21:51:53.690Z,47.85
2018-04-27T21:57:07.673Z,48.05
2018-04-27T22:01:58.660Z,48.21
2018-04-27T22:06:49.657Z,48.39
2018-04-27T22:11:46.420Z,48.45
2018-04-27T22:16:40.400Z,48.64
2018-04-27T22:21:32.489Z,48.78
2018-04-27T22:26:23.502Z,48.91
2018-04-27T22:31:14.506Z,49.11
2018-04-27T22:41:27.351Z,49.39
2018-04-27T22:46:19.115Z,49.56
2018-04-27T22:51:17.911Z,49.70
2018-04-27T22:56:15.937Z,49.72
2018-04-27T23:01:07.697Z,49.81
2018-04-27T23:05:58.693Z,49.88
2018-04-27T23:10:57.702Z,50.10
2018-04-27T23:15:52.536Z,50.21
2018-04-27T23:20:53.420Z,50.44
2018-04-27T23:25:45.298Z,50.69
2018-04-27T23:30:36.493Z,51.12
2018-04-27T23:35:28.228Z,51.16
2018-04-27T23:40:20.865Z,51.21
2018-04-27T23:45:11.843Z,51.39
2018-04-27T23:50:02.841Z,51.62
2018-04-27T23:54:54.565Z,51.92
2018-04-27T23:59:46.406Z,52.12
